sensor_id;sensor_type;location;lat;lon;timestamp;P1;durP1;ratioP1;P2;durP2;ratioP2
7239;SDS011;3661;53.288;10.458;2023-04-24T00:01:07;1673.43;;;999.90;;
7239;SDS011;3661;53.288;10.458;2023-04-24T00:03:39;1658.20;;;999.90;;
7239;SDS011;3661;53.288;10.458;2023-04-24T00:06:12;1665.50;;;999.90;;
7239;SDS011;3661;53.288;10.458;2023-04-24T00:08:48;1668.82;;;999.90;;
7239;SDS011;3661;53.288;10.458;2023-04-24T00:11:22;1675.55;;;999.90;;
7239;SDS011;3661;53.288;10.458;2023-04-24T00:13:54;1671.22;;;999.90;;
7239;SDS011;3661;53.288;10.458;2023-04-24T00:16:31;1670.60;;;999.90;;
7239;SDS011;3661;53.288;10.458;2023-04-24T00:19:03;1680.43;;;999.90;;
7239;SDS011;3661;53.288;10.458;2023-04-24T00:21:36;1683.28;;;999.90;;
7239;SDS011;3661;53.288;10.458;2023-04-24T00:24:08;1658.50;;;999.90;;
7239;SDS011;3661;53.288;10.458;2023-04-24T00:26:40;1664.53;;;999.90;;
7239;SDS011;3661;53.288;10.458;2023-04-24T00:29:12;1676.43;;;999.90;;
7239;SDS011;3661;53.288;10.458;2023-04-24T00:31:46;1675.55;;;999.90;;
7239;SDS011;3661;53.288;10.458;2023-04-24T00:34:19;1682.90;;;999.90;;
7239;SDS011;3661;53.288;10.458;2023-04-24T00:36:57;1660.05;;;999.90;;
7239;SDS011;3661;53.288;10.458;2023-04-24T00:39:29;1690.30;;;999.90;;
7239;SDS011;3661;53.288;10.458;2023-04-24T00:42:03;1670.63;;;999.90;;
7239;SDS011;3661;53.288;10.458;2023-04-24T00:44:36;1672.10;;;999.90;;
7239;SDS011;3661;53.288;10.458;2023-04-24T00:47:12;1639.18;;;999.90;;
7239;SDS011;3661;53.288;10.458;2023-04-24T00:49:45;1647.25;;;999.90;;
7239;SDS011;3661;53.288;10.458;2023-04-24T00:52:17;1658.30;;;999.90;;
7239;SDS011;3661;53.288;10.458;2023-04-24T00:54:50;1654.25;;;999.90;;
7239;SDS011;3661;53.288;10.458;2023-04-24T00:57:23;1644.97;;;999.90;;
7239;SDS011;3661;53.288;10.458;2023-04-24T00:59:55;1651.15;;;999.90;;
7239;SDS011;3661;53.288;10.458;2023-04-24T01:02:30;1641.28;;;999.90;;
7239;SDS011;3661;53.288;10.458;2023-04-24T01:05:04;1663.07;;;999.90;;
7239;SDS011;3661;53.288;10.458;2023-04-24T01:07:37;1641.03;;;999.90;;
7239;SDS011;3661;53.288;10.458;2023-04-24T01:10:10;1657.38;;;999.90;;
7239;SDS011;3661;53.288;10.458;2023-04-24T01:12:45;1641.78;;;999.90;;
7239;SDS011;3661;53.288;10.458;2023-04-24T01:15:18;1658.43;;;999.90;;
7239;SDS011;3661;53.288;10.458;2023-04-24T01:17:53;1634.60;;;999.90;;
7239;SDS011;3661;53.288;10.458;2023-04-24T01:20:26;1640.35;;;999.90;;
7239;SDS011;3661;53.288;10.458;2023-04-24T01:23:00;1652.35;;;999.90;;
7239;SDS011;3661;53.288;10.458;2023-04-24T01:25:32;1644.33;;;999.90;;
7239;SDS011;3661;53.288;10.458;2023-04-24T01:28:05;1627.22;;;999.90;;
7239;SDS011;3661;53.288;10.458;2023-04-24T01:30:37;1635.33;;;999.90;;
7239;SDS011;3661;53.288;10.458;2023-04-24T01:33:10;1641.80;;;999.90;;
7239;SDS011;3661;53.288;10.458;2023-04-24T01:35:42;1637.50;;;999.90;;
7239;SDS011;3661;53.288;10.458;2023-04-24T01:38:24;1632.47;;;999.90;;
7239;SDS011;3661;53.288;10.458;2023-04-24T01:40:56;1610.90;;;999.90;;
7239;SDS011;3661;53.288;10.458;2023-04-24T01:43:30;1622.07;;;999.90;;
7239;SDS011;3661;53.288;10.458;2023-04-24T01:46:08;1621.60;;;999.90;;
7239;SDS011;3661;53.288;10.458;2023-04-24T01:48:41;1599.57;;;999.90;;
7239;SDS011;3661;53.288;10.458;2023-04-24T01:51:14;1618.32;;;999.90;;
7239;SDS011;3661;53.288;10.458;2023-04-24T01:53:47;1597.50;;;999.90;;
7239;SDS011;3661;53.288;10.458;2023-04-24T01:56:21;1598.68;;;999.90;;
7239;SDS011;3661;53.288;10.458;2023-04-24T01:58:55;1605.47;;;999.90;;
7239;SDS011;3661;53.288;10.458;2023-04-24T02:01:32;1608.70;;;999.90;;
7239;SDS011;3661;53.288;10.458;2023-04-24T02:04:11;1600.88;;;999.90;;
7239;SDS011;3661;53.288;10.458;2023-04-24T02:06:45;1610.60;;;999.90;;
7239;SDS011;3661;53.288;10.458;2023-04-24T02:09:19;1617.63;;;999.90;;
7239;SDS011;3661;53.288;10.458;2023-04-24T02:11:51;1596.72;;;999.90;;
7239;SDS011;3661;53.288;10.458;2023-04-24T02:14:24;1604.70;;;999.90;;
7239;SDS011;3661;53.288;10.458;2023-04-24T02:16:56;1570.50;;;999.90;;
7239;SDS011;3661;53.288;10.458;2023-04-24T02:19:28;1575.53;;;999.90;;
7239;SDS011;3661;53.288;10.458;2023-04-24T02:22:00;1586.10;;;999.90;;
7239;SDS011;3661;53.288;10.458;2023-04-24T02:24:33;1579.85;;;999.90;;
7239;SDS011;3661;53.288;10.458;2023-04-24T02:27:05;1595.57;;;999.90;;
7239;SDS011;3661;53.288;10.458;2023-04-24T02:29:38;1586.63;;;999.90;;
7239;SDS011;3661;53.288;10.458;2023-04-24T02:32:10;1582.30;;;999.90;;
7239;SDS011;3661;53.288;10.458;2023-04-24T02:34:42;1567.35;;;999.90;;
7239;SDS011;3661;53.288;10.458;2023-04-24T02:37:14;1562.38;;;999.90;;
7239;SDS011;3661;53.288;10.458;2023-04-24T02:39:47;1568.53;;;999.90;;
7239;SDS011;3661;53.288;10.458;2023-04-24T02:42:20;1563.55;;;999.90;;
7239;SDS011;3661;53.288;10.458;2023-04-24T02:44:52;1525.25;;;999.90;;
7239;SDS011;3661;53.288;10.458;2023-04-24T02:47:24;1545.53;;;999.90;;
7239;SDS011;3661;53.288;10.458;2023-04-24T02:49:56;1564.32;;;999.90;;
7239;SDS011;3661;53.288;10.458;2023-04-24T02:52:35;1557.70;;;999.90;;
7239;SDS011;3661;53.288;10.458;2023-04-24T02:55:09;1551.40;;;999.90;;
7239;SDS011;3661;53.288;10.458;2023-04-24T02:57:41;1540.25;;;999.90;;
7239;SDS011;3661;53.288;10.458;2023-04-24T03:00:14;1548.25;;;999.90;;
7239;SDS011;3661;53.288;10.458;2023-04-24T03:02:46;1545.15;;;999.90;;
7239;SDS011;3661;53.288;10.458;2023-04-24T03:05:19;1529.50;;;999.90;;
7239;SDS011;3661;53.288;10.458;2023-04-24T03:07:51;1539.10;;;999.90;;
7239;SDS011;3661;53.288;10.458;2023-04-24T03:10:25;1533.18;;;999.90;;
7239;SDS011;3661;53.288;10.458;2023-04-24T03:12:57;1529.50;;;999.90;;
7239;SDS011;3661;53.288;10.458;2023-04-24T03:15:30;1524.70;;;999.90;;
7239;SDS011;3661;53.288;10.458;2023-04-24T03:18:02;1534.63;;;999.90;;
7239;SDS011;3661;53.288;10.458;2023-04-24T03:20:34;1515.70;;;999.90;;
7239;SDS011;3661;53.288;10.458;2023-04-24T03:23:07;1506.63;;;999.90;;
7239;SDS011;3661;53.288;10.458;2023-04-24T03:25:41;1504.13;;;999.90;;
7239;SDS011;3661;53.288;10.458;2023-04-24T03:28:14;1514.67;;;999.90;;
7239;SDS011;3661;53.288;10.458;2023-04-24T03:30:46;1517.63;;;999.90;;
7239;SDS011;3661;53.288;10.458;2023-04-24T03:33:18;1495.13;;;999.90;;
7239;SDS011;3661;53.288;10.458;2023-04-24T03:35:51;1489.65;;;999.90;;
7239;SDS011;3661;53.288;10.458;2023-04-24T03:38:27;1520.37;;;999.90;;
7239;SDS011;3661;53.288;10.458;2023-04-24T03:41:01;1522.43;;;999.90;;
7239;SDS011;3661;53.288;10.458;2023-04-24T03:43:33;1503.83;;;999.90;;
7239;SDS011;3661;53.288;10.458;2023-04-24T03:46:06;1523.75;;;999.90;;
7239;SDS011;3661;53.288;10.458;2023-04-24T03:48:39;1504.05;;;999.90;;
7239;SDS011;3661;53.288;10.458;2023-04-24T03:51:12;1492.77;;;999.90;;
7239;SDS011;3661;53.288;10.458;2023-04-24T03:53:45;1495.45;;;999.90;;
7239;SDS011;3661;53.288;10.458;2023-04-24T03:56:19;1500.93;;;999.90;;
7239;SDS011;3661;53.288;10.458;2023-04-24T03:58:52;1512.45;;;999.90;;
7239;SDS011;3661;53.288;10.458;2023-04-24T04:01:24;1498.70;;;999.90;;
7239;SDS011;3661;53.288;10.458;2023-04-24T04:03:58;1509.95;;;999.90;;
7239;SDS011;3661;53.288;10.458;2023-04-24T04:06:39;1492.53;;;999.90;;
7239;SDS011;3661;53.288;10.458;2023-04-24T04:09:12;1502.32;;;999.90;;
7239;SDS011;3661;53.288;10.458;2023-04-24T04:11:47;1501.13;;;999.90;;
7239;SDS011;3661;53.288;10.458;2023-04-24T04:14:19;1506.15;;;999.90;;
7239;SDS011;3661;53.288;10.458;2023-04-24T04:16:51;1498.85;;;999.90;;
7239;SDS011;3661;53.288;10.458;2023-04-24T04:19:27;1502.10;;;999.90;;
7239;SDS011;3661;53.288;10.458;2023-04-24T04:22:02;1500.93;;;999.90;;
7239;SDS011;3661;53.288;10.458;2023-04-24T04:24:35;1471.90;;;999.90;;
7239;SDS011;3661;53.288;10.458;2023-04-24T04:27:09;1479.97;;;999.90;;
7239;SDS011;3661;53.288;10.458;2023-04-24T04:29:42;1488.55;;;999.90;;
7239;SDS011;3661;53.288;10.458;2023-04-24T04:32:14;1493.63;;;999.90;;
7239;SDS011;3661;53.288;10.458;2023-04-24T04:34:47;1484.88;;;999.90;;
7239;SDS011;3661;53.288;10.458;2023-04-24T04:37:20;1466.97;;;999.90;;
7239;SDS011;3661;53.288;10.458;2023-04-24T04:39:55;1476.53;;;999.90;;
7239;SDS011;3661;53.288;10.458;2023-04-24T04:42:29;1481.80;;;999.90;;
7239;SDS011;3661;53.288;10.458;2023-04-24T04:45:02;1473.30;;;999.90;;
7239;SDS011;3661;53.288;10.458;2023-04-24T04:47:35;1464.00;;;999.90;;
7239;SDS011;3661;53.288;10.458;2023-04-24T04:50:08;1468.72;;;999.90;;
7239;SDS011;3661;53.288;10.458;2023-04-24T04:52:42;1463.18;;;999.90;;
7239;SDS011;3661;53.288;10.458;2023-04-24T04:55:16;1471.03;;;999.90;;
7239;SDS011;3661;53.288;10.458;2023-04-24T04:57:49;1467.20;;;999.90;;
7239;SDS011;3661;53.288;10.458;2023-04-24T05:00:22;1470.35;;;999.90;;
7239;SDS011;3661;53.288;10.458;2023-04-24T05:02:55;1463.05;;;999.90;;
7239;SDS011;3661;53.288;10.458;2023-04-24T05:05:33;1459.95;;;999.90;;
7239;SDS011;3661;53.288;10.458;2023-04-24T05:08:19;1486.15;;;999.90;;
7239;SDS011;3661;53.288;10.458;2023-04-24T05:10:51;1494.03;;;999.90;;
7239;SDS011;3661;53.288;10.458;2023-04-24T05:13:25;1490.75;;;999.90;;
7239;SDS011;3661;53.288;10.458;2023-04-24T05:15:57;1493.40;;;999.90;;
7239;SDS011;3661;53.288;10.458;2023-04-24T05:18:29;1495.67;;;999.90;;
7239;SDS011;3661;53.288;10.458;2023-04-24T05:21:01;1499.82;;;999.90;;
7239;SDS011;3661;53.288;10.458;2023-04-24T05:23:33;1503.03;;;999.90;;
7239;SDS011;3661;53.288;10.458;2023-04-24T05:26:05;1511.43;;;999.90;;
7239;SDS011;3661;53.288;10.458;2023-04-24T05:28:40;1518.28;;;999.90;;
7239;SDS011;3661;53.288;10.458;2023-04-24T05:31:12;1509.82;;;999.90;;
7239;SDS011;3661;53.288;10.458;2023-04-24T05:33:44;1533.87;;;999.90;;
7239;SDS011;3661;53.288;10.458;2023-04-24T05:36:18;1516.00;;;999.90;;
7239;SDS011;3661;53.288;10.458;2023-04-24T05:39:02;1541.55;;;999.90;;
7239;SDS011;3661;53.288;10.458;2023-04-24T05:41:39;1531.00;;;999.90;;
7239;SDS011;3661;53.288;10.458;2023-04-24T05:44:15;1509.88;;;999.90;;
7239;SDS011;3661;53.288;10.458;2023-04-24T05:46:47;1524.47;;;999.90;;
7239;SDS011;3661;53.288;10.458;2023-04-24T05:49:21;1550.60;;;999.90;;
7239;SDS011;3661;53.288;10.458;2023-04-24T05:51:54;1538.63;;;999.90;;
7239;SDS011;3661;53.288;10.458;2023-04-24T05:54:39;1559.55;;;999.90;;
7239;SDS011;3661;53.288;10.458;2023-04-24T05:57:11;1544.93;;;999.90;;
7239;SDS011;3661;53.288;10.458;2023-04-24T06:00:01;1556.65;;;999.90;;
7239;SDS011;3661;53.288;10.458;2023-04-24T06:02:34;1553.10;;;999.90;;
7239;SDS011;3661;53.288;10.458;2023-04-24T06:05:06;1549.28;;;999.90;;
7239;SDS011;3661;53.288;10.458;2023-04-24T06:07:40;1563.47;;;999.90;;
7239;SDS011;3661;53.288;10.458;2023-04-24T06:10:18;1553.38;;;999.90;;
7239;SDS011;3661;53.288;10.458;2023-04-24T06:12:50;1557.75;;;999.90;;
7239;SDS011;3661;53.288;10.458;2023-04-24T06:15:31;1552.57;;;999.90;;
7239;SDS011;3661;53.288;10.458;2023-04-24T06:18:04;1556.90;;;999.90;;
7239;SDS011;3661;53.288;10.458;2023-04-24T06:20:38;1564.88;;;999.90;;
7239;SDS011;3661;53.288;10.458;2023-04-24T06:27:14;1577.93;;;999.90;;
7239;SDS011;3661;53.288;10.458;2023-04-24T06:30:14;1558.90;;;999.90;;
7239;SDS011;3661;53.288;10.458;2023-04-24T06:32:58;1564.50;;;999.90;;
7239;SDS011;3661;53.288;10.458;2023-04-24T06:35:32;1578.97;;;999.90;;
7239;SDS011;3661;53.288;10.458;2023-04-24T06:38:07;1568.10;;;999.90;;
7239;SDS011;3661;53.288;10.458;2023-04-24T06:40:43;1571.53;;;999.90;;
7239;SDS011;3661;53.288;10.458;2023-04-24T06:43:30;1584.37;;;999.90;;
7239;SDS011;3661;53.288;10.458;2023-04-24T06:46:03;1582.60;;;999.90;;
7239;SDS011;3661;53.288;10.458;2023-04-24T06:48:40;1607.53;;;999.90;;
7239;SDS011;3661;53.288;10.458;2023-04-24T06:51:13;1603.10;;;999.90;;
7239;SDS011;3661;53.288;10.458;2023-04-24T06:53:48;1609.55;;;999.90;;
7239;SDS011;3661;53.288;10.458;2023-04-24T06:56:21;1605.43;;;999.90;;
7239;SDS011;3661;53.288;10.458;2023-04-24T06:58:55;1614.90;;;999.90;;
7239;SDS011;3661;53.288;10.458;2023-04-24T07:01:30;1613.40;;;999.90;;
7239;SDS011;3661;53.288;10.458;2023-04-24T07:04:26;1623.67;;;999.90;;
7239;SDS011;3661;53.288;10.458;2023-04-24T07:07:12;1631.80;;;999.90;;
7239;SDS011;3661;53.288;10.458;2023-04-24T07:09:49;1626.27;;;999.90;;
7239;SDS011;3661;53.288;10.458;2023-04-24T07:12:22;1619.25;;;999.90;;
7239;SDS011;3661;53.288;10.458;2023-04-24T07:14:54;1622.63;;;999.90;;
7239;SDS011;3661;53.288;10.458;2023-04-24T07:17:29;1652.45;;;999.90;;
7239;SDS011;3661;53.288;10.458;2023-04-24T07:20:07;1618.82;;;999.90;;
7239;SDS011;3661;53.288;10.458;2023-04-24T07:22:46;1645.28;;;999.90;;
7239;SDS011;3661;53.288;10.458;2023-04-24T07:25:20;1669.45;;;999.90;;
7239;SDS011;3661;53.288;10.458;2023-04-24T07:27:55;1693.15;;;999.90;;
7239;SDS011;3661;53.288;10.458;2023-04-24T07:30:29;1666.47;;;999.90;;
7239;SDS011;3661;53.288;10.458;2023-04-24T07:33:02;1687.38;;;999.90;;
7239;SDS011;3661;53.288;10.458;2023-04-24T07:35:36;1681.80;;;999.90;;
7239;SDS011;3661;53.288;10.458;2023-04-24T07:38:09;1672.93;;;999.90;;
7239;SDS011;3661;53.288;10.458;2023-04-24T07:40:43;1696.32;;;999.90;;
7239;SDS011;3661;53.288;10.458;2023-04-24T07:43:16;1708.90;;;999.90;;
7239;SDS011;3661;53.288;10.458;2023-04-24T07:45:50;1707.68;;;999.90;;
7239;SDS011;3661;53.288;10.458;2023-04-24T07:48:23;1689.13;;;999.90;;
7239;SDS011;3661;53.288;10.458;2023-04-24T07:50:59;1710.10;;;999.90;;
7239;SDS011;3661;53.288;10.458;2023-04-24T07:53:31;1721.53;;;999.90;;
7239;SDS011;3661;53.288;10.458;2023-04-24T07:56:04;1737.90;;;999.90;;
7239;SDS011;3661;53.288;10.458;2023-04-24T07:58:43;1733.07;;;999.90;;
7239;SDS011;3661;53.288;10.458;2023-04-24T08:01:16;1738.55;;;999.90;;
7239;SDS011;3661;53.288;10.458;2023-04-24T08:03:50;1748.68;;;999.90;;
7239;SDS011;3661;53.288;10.458;2023-04-24T08:06:24;1743.43;;;999.90;;
7239;SDS011;3661;53.288;10.458;2023-04-24T08:09:00;1744.47;;;999.90;;
7239;SDS011;3661;53.288;10.458;2023-04-24T08:11:33;1756.50;;;999.90;;
7239;SDS011;3661;53.288;10.458;2023-04-24T08:14:05;1761.82;;;999.90;;
7239;SDS011;3661;53.288;10.458;2023-04-24T08:16:38;1756.45;;;999.90;;
7239;SDS011;3661;53.288;10.458;2023-04-24T08:19:19;1771.88;;;999.90;;
7239;SDS011;3661;53.288;10.458;2023-04-24T08:21:56;1773.55;;;999.90;;
7239;SDS011;3661;53.288;10.458;2023-04-24T08:24:28;1785.47;;;999.90;;
7239;SDS011;3661;53.288;10.458;2023-04-24T08:27:07;1794.07;;;999.90;;
7239;SDS011;3661;53.288;10.458;2023-04-24T08:29:41;1801.28;;;999.90;;
7239;SDS011;3661;53.288;10.458;2023-04-24T08:32:14;1808.60;;;999.90;;
7239;SDS011;3661;53.288;10.458;2023-04-24T08:34:46;1816.25;;;999.90;;
7239;SDS011;3661;53.288;10.458;2023-04-24T08:37:20;1809.55;;;999.90;;
7239;SDS011;3661;53.288;10.458;2023-04-24T08:39:53;1824.37;;;999.90;;
7239;SDS011;3661;53.288;10.458;2023-04-24T08:42:25;1833.47;;;999.90;;
7239;SDS011;3661;53.288;10.458;2023-04-24T08:45:12;1825.95;;;999.90;;
7239;SDS011;3661;53.288;10.458;2023-04-24T08:47:46;1845.85;;;999.90;;
7239;SDS011;3661;53.288;10.458;2023-04-24T08:50:19;1846.75;;;999.90;;
7239;SDS011;3661;53.288;10.458;2023-04-24T08:52:57;1839.00;;;999.90;;
7239;SDS011;3661;53.288;10.458;2023-04-24T08:55:31;1849.40;;;999.90;;
7239;SDS011;3661;53.288;10.458;2023-04-24T08:58:07;1863.50;;;999.90;;
7239;SDS011;3661;53.288;10.458;2023-04-24T09:00:45;1861.78;;;999.90;;
7239;SDS011;3661;53.288;10.458;2023-04-24T09:03:19;1884.90;;;999.90;;
7239;SDS011;3661;53.288;10.458;2023-04-24T09:05:52;1864.88;;;999.90;;
7239;SDS011;3661;53.288;10.458;2023-04-24T09:08:28;1884.53;;;999.90;;
7239;SDS011;3661;53.288;10.458;2023-04-24T09:11:02;1891.03;;;999.90;;
7239;SDS011;3661;53.288;10.458;2023-04-24T09:13:35;1888.88;;;999.90;;
7239;SDS011;3661;53.288;10.458;2023-04-24T09:16:12;1896.00;;;999.90;;
7239;SDS011;3661;53.288;10.458;2023-04-24T09:18:47;1910.55;;;999.90;;
7239;SDS011;3661;53.288;10.458;2023-04-24T09:21:20;1896.63;;;999.90;;
7239;SDS011;3661;53.288;10.458;2023-04-24T09:24:00;1906.20;;;999.90;;
7239;SDS011;3661;53.288;10.458;2023-04-24T09:26:35;1892.83;;;999.90;;
7239;SDS011;3661;53.288;10.458;2023-04-24T09:29:08;1917.38;;;999.90;;
7239;SDS011;3661;53.288;10.458;2023-04-24T09:31:46;1918.53;;;999.90;;
7239;SDS011;3661;53.288;10.458;2023-04-24T09:34:23;1912.68;;;999.90;;
7239;SDS011;3661;53.288;10.458;2023-04-24T09:36:57;1917.82;;;999.90;;
7239;SDS011;3661;53.288;10.458;2023-04-24T09:39:30;1899.57;;;999.90;;
7239;SDS011;3661;53.288;10.458;2023-04-24T09:42:03;1897.93;;;999.90;;
7239;SDS011;3661;53.288;10.458;2023-04-24T09:44:35;1902.75;;;999.90;;
7239;SDS011;3661;53.288;10.458;2023-04-24T09:47:07;1906.32;;;999.90;;
7239;SDS011;3661;53.288;10.458;2023-04-24T09:49:40;1906.88;;;999.90;;
7239;SDS011;3661;53.288;10.458;2023-04-24T09:52:13;1912.03;;;999.90;;
7239;SDS011;3661;53.288;10.458;2023-04-24T09:54:53;1899.37;;;999.90;;
7239;SDS011;3661;53.288;10.458;2023-04-24T09:57:25;1891.90;;;999.90;;
7239;SDS011;3661;53.288;10.458;2023-04-24T09:59:58;1899.07;;;999.90;;
7239;SDS011;3661;53.288;10.458;2023-04-24T10:02:30;1908.18;;;999.90;;
7239;SDS011;3661;53.288;10.458;2023-04-24T10:05:03;1902.18;;;999.90;;
7239;SDS011;3661;53.288;10.458;2023-04-24T10:07:37;1888.03;;;999.90;;
7239;SDS011;3661;53.288;10.458;2023-04-24T10:10:11;1893.22;;;999.90;;
7239;SDS011;3661;53.288;10.458;2023-04-24T10:12:43;1891.60;;;999.90;;
7239;SDS011;3661;53.288;10.458;2023-04-24T10:15:16;1891.40;;;999.90;;
7239;SDS011;3661;53.288;10.458;2023-04-24T10:17:52;1896.45;;;999.90;;
7239;SDS011;3661;53.288;10.458;2023-04-24T10:20:26;1867.57;;;999.90;;
7239;SDS011;3661;53.288;10.458;2023-04-24T10:23:01;1872.28;;;999.90;;
7239;SDS011;3661;53.288;10.458;2023-04-24T10:25:35;1877.57;;;999.90;;
7239;SDS011;3661;53.288;10.458;2023-04-24T10:28:09;1877.53;;;999.90;;
7239;SDS011;3661;53.288;10.458;2023-04-24T10:30:42;1899.50;;;999.90;;
7239;SDS011;3661;53.288;10.458;2023-04-24T10:33:16;1893.45;;;999.90;;
7239;SDS011;3661;53.288;10.458;2023-04-24T10:35:49;1896.05;;;999.90;;
7239;SDS011;3661;53.288;10.458;2023-04-24T10:38:24;1903.55;;;999.90;;
7239;SDS011;3661;53.288;10.458;2023-04-24T10:41:10;1890.65;;;999.90;;
7239;SDS011;3661;53.288;10.458;2023-04-24T10:44:02;1906.38;;;999.90;;
7239;SDS011;3661;53.288;10.458;2023-04-24T10:46:36;1912.28;;;999.90;;
7239;SDS011;3661;53.288;10.458;2023-04-24T10:49:09;1920.00;;;999.90;;
7239;SDS011;3661;53.288;10.458;2023-04-24T10:51:45;1935.10;;;999.90;;
7239;SDS011;3661;53.288;10.458;2023-04-24T10:54:23;1942.68;;;999.90;;
7239;SDS011;3661;53.288;10.458;2023-04-24T11:00:10;1938.68;;;999.90;;
7239;SDS011;3661;53.288;10.458;2023-04-24T11:02:48;1943.82;;;999.90;;
7239;SDS011;3661;53.288;10.458;2023-04-24T11:05:24;1948.72;;;999.90;;
7239;SDS011;3661;53.288;10.458;2023-04-24T11:08:23;1951.65;;;999.90;;
7239;SDS011;3661;53.288;10.458;2023-04-24T11:10:58;1950.35;;;999.90;;
7239;SDS011;3661;53.288;10.458;2023-04-24T11:16:44;1953.88;;;999.90;;
7239;SDS011;3661;53.288;10.458;2023-04-24T11:19:23;1941.60;;;999.90;;
7239;SDS011;3661;53.288;10.458;2023-04-24T11:22:00;1978.63;;;999.90;;
7239;SDS011;3661;53.288;10.458;2023-04-24T11:24:49;1970.70;;;999.90;;
7239;SDS011;3661;53.288;10.458;2023-04-24T11:27:26;1967.55;;;999.90;;
7239;SDS011;3661;53.288;10.458;2023-04-24T11:30:12;1968.10;;;999.90;;
7239;SDS011;3661;53.288;10.458;2023-04-24T11:32:53;1976.88;;;999.90;;
7239;SDS011;3661;53.288;10.458;2023-04-24T11:35:25;1976.95;;;999.90;;
7239;SDS011;3661;53.288;10.458;2023-04-24T11:38:01;1970.43;;;999.90;;
7239;SDS011;3661;53.288;10.458;2023-04-24T11:40:36;1980.03;;;999.90;;
7239;SDS011;3661;53.288;10.458;2023-04-24T11:43:08;1977.80;;;999.90;;
7239;SDS011;3661;53.288;10.458;2023-04-24T11:45:47;1983.60;;;999.90;;
7239;SDS011;3661;53.288;10.458;2023-04-24T11:48:19;1984.60;;;999.90;;
7239;SDS011;3661;53.288;10.458;2023-04-24T11:50:52;1976.95;;;999.90;;
7239;SDS011;3661;53.288;10.458;2023-04-24T11:53:24;1979.30;;;999.90;;
7239;SDS011;3661;53.288;10.458;2023-04-24T11:55:56;1954.25;;;999.90;;
7239;SDS011;3661;53.288;10.458;2023-04-24T11:58:34;1954.80;;;999.90;;
7239;SDS011;3661;53.288;10.458;2023-04-24T12:01:10;1972.72;;;999.90;;
7239;SDS011;3661;53.288;10.458;2023-04-24T12:03:46;1971.18;;;999.90;;
7239;SDS011;3661;53.288;10.458;2023-04-24T12:06:21;1972.35;;;999.90;;
7239;SDS011;3661;53.288;10.458;2023-04-24T12:08:53;1963.75;;;999.90;;
7239;SDS011;3661;53.288;10.458;2023-04-24T12:11:27;1980.88;;;999.90;;
7239;SDS011;3661;53.288;10.458;2023-04-24T12:14:09;1971.25;;;999.90;;
7239;SDS011;3661;53.288;10.458;2023-04-24T12:16:48;1972.82;;;999.90;;
7239;SDS011;3661;53.288;10.458;2023-04-24T12:19:22;1948.03;;;999.90;;
7239;SDS011;3661;53.288;10.458;2023-04-24T12:22:05;1949.50;;;999.90;;
7239;SDS011;3661;53.288;10.458;2023-04-24T12:27:31;1960.65;;;999.90;;
7239;SDS011;3661;53.288;10.458;2023-04-24T12:30:09;1952.68;;;999.90;;
7239;SDS011;3661;53.288;10.458;2023-04-24T12:32:46;1951.70;;;999.90;;
7239;SDS011;3661;53.288;10.458;2023-04-24T12:35:28;1945.55;;;999.90;;
7239;SDS011;3661;53.288;10.458;2023-04-24T12:38:08;1944.10;;;999.90;;
7239;SDS011;3661;53.288;10.458;2023-04-24T12:40:41;1944.38;;;999.90;;
7239;SDS011;3661;53.288;10.458;2023-04-24T12:43:14;1934.87;;;999.90;;
7239;SDS011;3661;53.288;10.458;2023-04-24T12:45:48;1937.03;;;999.90;;
7239;SDS011;3661;53.288;10.458;2023-04-24T12:48:24;1942.75;;;999.90;;
7239;SDS011;3661;53.288;10.458;2023-04-24T12:50:56;1950.13;;;999.90;;
7239;SDS011;3661;53.288;10.458;2023-04-24T12:53:31;1929.00;;;999.90;;
7239;SDS011;3661;53.288;10.458;2023-04-24T12:56:04;1938.95;;;999.90;;
7239;SDS011;3661;53.288;10.458;2023-04-24T12:58:37;1927.47;;;999.90;;
7239;SDS011;3661;53.288;10.458;2023-04-24T13:01:10;1945.95;;;999.90;;
7239;SDS011;3661;53.288;10.458;2023-04-24T13:03:45;1932.47;;;999.90;;
7239;SDS011;3661;53.288;10.458;2023-04-24T13:06:17;1946.15;;;999.90;;
7239;SDS011;3661;53.288;10.458;2023-04-24T13:08:51;1951.20;;;999.90;;
7239;SDS011;3661;53.288;10.458;2023-04-24T13:11:24;1963.28;;;999.90;;
7239;SDS011;3661;53.288;10.458;2023-04-24T13:13:57;1938.22;;;999.90;;
7239;SDS011;3661;53.288;10.458;2023-04-24T13:16:29;1933.28;;;999.90;;
7239;SDS011;3661;53.288;10.458;2023-04-24T13:19:02;1936.35;;;999.90;;
7239;SDS011;3661;53.288;10.458;2023-04-24T13:21:35;1941.45;;;999.90;;
7239;SDS011;3661;53.288;10.458;2023-04-24T13:24:07;1940.25;;;999.90;;
7239;SDS011;3661;53.288;10.458;2023-04-24T13:26:39;1931.07;;;999.90;;
7239;SDS011;3661;53.288;10.458;2023-04-24T13:29:11;1929.72;;;999.90;;
7239;SDS011;3661;53.288;10.458;2023-04-24T13:31:46;1923.00;;;999.90;;
7239;SDS011;3661;53.288;10.458;2023-04-24T13:34:20;1903.03;;;999.90;;
7239;SDS011;3661;53.288;10.458;2023-04-24T13:36:54;1910.18;;;999.90;;
7239;SDS011;3661;53.288;10.458;2023-04-24T13:39:28;1902.03;;;999.90;;
7239;SDS011;3661;53.288;10.458;2023-04-24T13:42:03;1896.78;;;999.90;;
7239;SDS011;3661;53.288;10.458;2023-04-24T13:44:36;1886.60;;;999.90;;
7239;SDS011;3661;53.288;10.458;2023-04-24T13:47:08;1897.63;;;999.90;;
7239;SDS011;3661;53.288;10.458;2023-04-24T13:49:42;1885.13;;;999.90;;
7239;SDS011;3661;53.288;10.458;2023-04-24T13:52:19;1869.70;;;999.90;;
7239;SDS011;3661;53.288;10.458;2023-04-24T13:54:52;1869.27;;;999.90;;
7239;SDS011;3661;53.288;10.458;2023-04-24T13:57:25;1874.00;;;999.90;;
7239;SDS011;3661;53.288;10.458;2023-04-24T13:59:58;1869.65;;;999.90;;
7239;SDS011;3661;53.288;10.458;2023-04-24T14:02:33;1874.30;;;999.90;;
7239;SDS011;3661;53.288;10.458;2023-04-24T14:05:08;1868.80;;;999.90;;
7239;SDS011;3661;53.288;10.458;2023-04-24T14:07:41;1882.20;;;999.90;;
7239;SDS011;3661;53.288;10.458;2023-04-24T14:10:14;1874.13;;;999.90;;
7239;SDS011;3661;53.288;10.458;2023-04-24T14:12:46;1876.82;;;999.90;;
7239;SDS011;3661;53.288;10.458;2023-04-24T14:15:21;1881.97;;;999.90;;
7239;SDS011;3661;53.288;10.458;2023-04-24T14:17:54;1859.28;;;999.90;;
7239;SDS011;3661;53.288;10.458;2023-04-24T14:20:27;1853.15;;;999.90;;
7239;SDS011;3661;53.288;10.458;2023-04-24T14:23:00;1887.55;;;999.90;;
7239;SDS011;3661;53.288;10.458;2023-04-24T14:25:33;1871.10;;;999.90;;
7239;SDS011;3661;53.288;10.458;2023-04-24T14:28:05;1873.00;;;999.90;;
7239;SDS011;3661;53.288;10.458;2023-04-24T14:30:38;1886.18;;;999.90;;
7239;SDS011;3661;53.288;10.458;2023-04-24T14:33:10;1873.38;;;999.90;;
7239;SDS011;3661;53.288;10.458;2023-04-24T14:35:44;1854.32;;;999.90;;
7239;SDS011;3661;53.288;10.458;2023-04-24T14:38:17;1860.55;;;999.90;;
7239;SDS011;3661;53.288;10.458;2023-04-24T14:40:50;1869.20;;;999.90;;
7239;SDS011;3661;53.288;10.458;2023-04-24T14:43:22;1862.78;;;999.90;;
7239;SDS011;3661;53.288;10.458;2023-04-24T14:45:57;1871.03;;;999.90;;
7239;SDS011;3661;53.288;10.458;2023-04-24T14:48:30;1870.00;;;999.90;;
7239;SDS011;3661;53.288;10.458;2023-04-24T14:51:04;1858.82;;;999.90;;